createdAt,value
2017-09-01T00:00:43.061Z,13.30
2017-09-01T00:03:11.175Z,13.30
2017-09-01T00:05:39.592Z,13.20
2017-09-01T00:08:07.733Z,13.00
2017-09-01T00:10:36.772Z,12.90
2017-09-01T00:13:04.879Z,12.70
2017-09-01T00:15:32.976Z,12.70
2017-09-01T00:18:02.159Z,12.80
2017-09-01T00:20:30.268Z,12.90
2017-09-01T00:22:59.183Z,12.90
2017-09-01T00:25:28.108Z,12.90
2017-09-01T00:27:57.251Z,12.80
2017-09-01T00:30:26.367Z,13.00
2017-09-01T00:32:54.528Z,13.00
2017-09-01T00:35:22.680Z,13.00
2017-09-01T00:37:52.603Z,12.90
2017-09-01T00:40:21.634Z,13.00
2017-09-01T00:42:50.480Z,12.90
2017-09-01T00:45:18.689Z,12.90
2017-09-01T00:47:46.819Z,12.90
2017-09-01T00:50:15.932Z,12.90
2017-09-01T00:52:44.068Z,12.90
2017-09-01T00:55:13.108Z,12.80
2017-09-01T00:57:43.133Z,13.00
2017-09-01T01:00:11.267Z,12.80
2017-09-01T01:02:40.276Z,13.00
2017-09-01T01:05:09.514Z,12.90
2017-09-01T01:07:37.629Z,13.00
2017-09-01T01:10:05.767Z,13.10
2017-09-01T01:12:34.145Z,13.00
2017-09-01T01:15:02.520Z,13.00
2017-09-01T01:17:30.631Z,13.00
2017-09-01T01:19:58.732Z,13.10
2017-09-01T01:22:26.877Z,13.00
2017-09-01T01:24:55.072Z,12.90
2017-09-01T01:27:24.163Z,12.90
2017-09-01T01:29:52.380Z,13.00
2017-09-01T01:32:21.328Z,13.00
2017-09-01T01:34:50.304Z,13.20
2017-09-01T01:37:21.085Z,13.10
2017-09-01T01:39:50.028Z,13.20
2017-09-01T01:42:19.060Z,13.20
2017-09-01T01:44:47.179Z,13.10
2017-09-01T01:47:15.507Z,13.20
2017-09-01T01:49:44.768Z,13.10
2017-09-01T01:52:13.513Z,13.20
2017-09-01T01:54:42.521Z,13.20
2017-09-01T01:57:11.438Z,13.20
2017-09-01T01:59:39.640Z,13.30
2017-09-01T02:02:08.045Z,13.30
2017-09-01T02:04:36.147Z,13.30
2017-09-01T02:07:08.040Z,13.20
2017-09-01T02:09:36.119Z,13.10
2017-09-01T02:12:04.268Z,13.20
2017-09-01T02:14:32.368Z,13.10
2017-09-01T02:17:00.491Z,13.10
2017-09-01T02:19:29.508Z,13.30
2017-09-01T02:21:59.705Z,13.30
2017-09-01T02:24:28.061Z,13.30
2017-09-01T02:26:56.706Z,13.30
2017-09-01T02:29:24.964Z,13.20
2017-09-01T02:31:53.055Z,13.20
2017-09-01T02:34:21.853Z,13.20
2017-09-01T02:36:50.237Z,13.40
2017-09-01T02:39:19.177Z,13.40
2017-09-01T02:41:47.404Z,13.50
2017-09-01T02:44:15.540Z,13.30
2017-09-01T02:46:43.828Z,13.30
2017-09-01T02:49:11.943Z,13.40
2017-09-01T02:51:40.048Z,13.30
2017-09-01T02:54:09.306Z,13.30
2017-09-01T02:56:37.656Z,13.40
2017-09-01T02:59:05.816Z,13.40
2017-09-01T03:01:33.931Z,13.30
2017-09-01T03:04:02.064Z,13.40
2017-09-01T03:06:30.173Z,13.40
2017-09-01T03:08:58.472Z,12.80
2017-09-01T03:11:26.719Z,13.40
2017-09-01T03:13:54.830Z,13.40
2017-09-01T03:16:22.966Z,13.40
2017-09-01T03:18:51.113Z,13.40
2017-09-01T03:21:19.476Z,13.30
2017-09-01T03:23:48.248Z,13.10
2017-09-01T03:26:16.682Z,13.10
2017-09-01T03:28:44.779Z,13.10
2017-09-01T03:31:14.931Z,13.10
2017-09-01T03:33:43.844Z,13.10
2017-09-01T03:36:11.990Z,13.10
2017-09-01T03:38:41.332Z,13.10
2017-09-01T03:41:10.343Z,13.20
2017-09-01T03:43:39.301Z,13.20
2017-09-01T03:46:07.534Z,13.20
2017-09-01T03:48:36.468Z,13.10
2017-09-01T03:51:05.497Z,13.10
2017-09-01T03:53:34.508Z,13.00
2017-09-01T03:56:03.436Z,13.00
2017-09-01T03:58:31.612Z,13.00
2017-09-01T04:00:59.832Z,13.00
2017-09-01T04:03:28.165Z,13.10
2017-09-01T04:05:57.063Z,13.20
2017-09-01T04:08:25.310Z,13.00
2017-09-01T04:10:54.583Z,12.70
2017-09-01T04:13:23.645Z,13.10
2017-09-01T04:15:51.767Z,13.00
2017-09-01T04:18:20.115Z,12.90
2017-09-01T04:20:48.200Z,12.90
2017-09-01T04:23:16.323Z,13.00
2017-09-01T04:25:44.796Z,13.00
2017-09-01T04:28:13.335Z,13.00
2017-09-01T04:30:42.607Z,13.10
2017-09-01T04:33:10.983Z,13.10
2017-09-01T04:35:39.871Z,13.10
2017-09-01T04:38:08.871Z,13.10
2017-09-01T04:40:36.989Z,13.20
2017-09-01T04:43:05.099Z,13.20
2017-09-01T04:45:33.422Z,13.10
2017-09-01T04:48:02.379Z,13.10
2017-09-01T04:50:32.331Z,13.10
2017-09-01T04:53:00.512Z,13.00
2017-09-01T04:55:28.615Z,12.90
2017-09-01T04:57:56.704Z,12.90
2017-09-01T05:00:24.971Z,13.00
2017-09-01T05:02:53.295Z,13.00
2017-09-01T05:05:23.547Z,13.00
2017-09-01T05:07:51.948Z,13.00
2017-09-01T05:10:20.119Z,13.00
2017-09-01T05:12:48.960Z,13.00
2017-09-01T05:15:17.080Z,13.00
2017-09-01T05:17:45.203Z,13.00
2017-09-01T05:20:13.619Z,13.00
2017-09-01T05:22:41.956Z,13.00
2017-09-01T05:25:10.503Z,13.10
2017-09-01T05:27:38.664Z,13.20
2017-09-01T05:30:07.000Z,13.20
2017-09-01T05:32:35.438Z,13.20
2017-09-01T05:35:03.594Z,13.30
2017-09-01T05:37:31.839Z,13.30
2017-09-01T05:40:00.884Z,13.10
2017-09-01T05:42:29.847Z,13.30
2017-09-01T05:44:58.716Z,13.30
2017-09-01T05:47:26.909Z,13.30
2017-09-01T05:49:55.132Z,13.40
2017-09-01T05:52:24.268Z,13.30
2017-09-01T05:54:52.452Z,13.40
2017-09-01T05:57:20.650Z,13.40
2017-09-01T05:59:49.006Z,13.40
2017-09-01T06:02:17.123Z,13.40
2017-09-01T06:04:45.452Z,13.50
2017-09-01T06:07:13.819Z,13.50
2017-09-01T06:09:42.187Z,13.40
2017-09-01T06:12:10.279Z,13.40
2017-09-01T06:14:39.499Z,13.40
2017-09-01T06:17:08.531Z,13.50
2017-09-01T06:19:36.610Z,13.60
2017-09-01T06:22:04.970Z,13.60
2017-09-01T06:24:33.331Z,13.60
2017-09-01T06:27:01.451Z,13.60
2017-09-01T06:29:29.884Z,13.60
2017-09-01T06:31:58.191Z,13.60
2017-09-01T06:34:26.569Z,13.70
2017-09-01T06:36:55.232Z,13.70
2017-09-01T06:39:24.276Z,13.70
2017-09-01T06:41:52.528Z,13.80
2017-09-01T06:44:20.958Z,13.80
2017-09-01T06:46:49.418Z,13.80
2017-09-01T06:49:17.567Z,13.70
2017-09-01T06:51:46.860Z,13.80
2017-09-01T06:54:15.332Z,13.80
2017-09-01T06:56:43.502Z,13.80
2017-09-01T06:59:11.599Z,13.80
2017-09-01T07:01:39.716Z,13.90
2017-09-01T07:04:07.827Z,13.90
2017-09-01T07:06:36.796Z,13.90
2017-09-01T07:09:04.930Z,13.80
2017-09-01T07:11:33.271Z,13.90
2017-09-01T07:14:01.403Z,13.90
2017-09-01T07:16:29.697Z,13.90
2017-09-01T07:19:01.838Z,13.90
2017-09-01T07:21:31.252Z,13.90
2017-09-01T07:23:59.773Z,13.90
2017-09-01T07:26:27.865Z,14.10
2017-09-01T07:28:55.984Z,14.10
2017-09-01T07:31:24.170Z,14.10
2017-09-01T07:33:52.272Z,14.20
2017-09-01T07:36:21.072Z,14.20
2017-09-01T07:38:49.470Z,14.20
2017-09-01T07:41:17.620Z,14.30
2017-09-01T07:43:45.736Z,14.30
2017-09-01T07:46:13.844Z,14.30
2017-09-01T07:48:42.783Z,14.40
2017-09-01T07:51:11.058Z,14.40
2017-09-01T07:53:39.530Z,14.40
2017-09-01T07:56:07.631Z,14.40
2017-09-01T07:58:35.831Z,14.50
2017-09-01T08:01:03.951Z,14.60
2017-09-01T08:03:32.134Z,14.60
2017-09-01T08:06:01.153Z,14.70
2017-09-01T08:08:29.268Z,14.80
2017-09-01T08:10:57.358Z,14.80
2017-09-01T08:13:25.481Z,14.80
2017-09-01T08:15:53.574Z,14.90
2017-09-01T08:18:23.039Z,14.90
2017-09-01T08:20:51.958Z,14.90
2017-09-01T08:23:20.926Z,15.00
2017-09-01T08:25:49.141Z,15.10
2017-09-01T08:28:18.167Z,15.00
2017-09-01T08:30:46.538Z,15.00
2017-09-01T08:33:14.631Z,14.90
2017-09-01T08:35:42.727Z,15.00
2017-09-01T08:38:11.794Z,15.00
2017-09-01T08:40:39.976Z,15.00
2017-09-01T08:43:08.353Z,15.00
2017-09-01T08:45:36.465Z,15.10
2017-09-01T08:48:04.624Z,15.00
2017-09-01T08:50:32.739Z,15.20
2017-09-01T08:53:00.932Z,15.40
2017-09-01T08:55:29.107Z,15.40
2017-09-01T08:57:57.327Z,15.50
2017-09-01T09:00:25.467Z,15.50
2017-09-01T09:02:53.702Z,15.50
2017-09-01T09:05:21.798Z,15.50
2017-09-01T09:07:49.907Z,15.50
2017-09-01T09:10:18.004Z,15.50
2017-09-01T09:12:46.169Z,15.50
2017-09-01T09:15:14.351Z,15.70
2017-09-01T09:17:42.468Z,15.70
2017-09-01T09:20:10.591Z,15.70
2017-09-01T09:22:39.588Z,15.70
2017-09-01T09:25:07.703Z,15.70
2017-09-01T09:27:36.707Z,15.80
2017-09-01T09:30:04.852Z,15.80
2017-09-01T09:32:33.018Z,15.90
2017-09-01T09:35:01.172Z,16.00
2017-09-01T09:37:29.276Z,15.90
2017-09-01T09:39:57.389Z,15.90
2017-09-01T09:42:25.508Z,15.90
2017-09-01T09:44:54.657Z,15.90
2017-09-01T09:47:22.788Z,16.10
2017-09-01T09:49:50.883Z,16.00
2017-09-01T09:52:19.856Z,16.00
2017-09-01T09:54:48.865Z,16.00
2017-09-01T09:57:16.955Z,16.00
2017-09-01T09:59:45.864Z,16.00
2017-09-01T10:02:14.029Z,16.20
2017-09-01T10:04:43.228Z,16.20
2017-09-01T10:07:12.124Z,16.50
2017-09-01T10:09:40.254Z,16.50
2017-09-01T10:12:08.364Z,16.60
2017-09-01T10:14:37.311Z,16.50
2017-09-01T10:17:05.694Z,16.60
2017-09-01T10:19:33.808Z,16.60
2017-09-01T10:22:02.355Z,16.60
2017-09-01T10:24:30.457Z,16.50
2017-09-01T10:26:59.773Z,16.40
2017-09-01T10:29:27.884Z,16.50
2017-09-01T10:31:57.076Z,16.50
2017-09-01T10:34:26.113Z,16.60
2017-09-01T10:36:54.351Z,16.60
2017-09-01T10:39:23.277Z,16.90
2017-09-01T10:41:52.611Z,16.90
2017-09-01T10:44:20.857Z,16.90
2017-09-01T10:46:49.744Z,17.00
2017-09-01T10:49:33.081Z,17.10
2017-09-01T10:52:19.884Z,17.00
2017-09-01T10:55:06.510Z,16.80
2017-09-01T11:00:46.524Z,16.90
2017-09-01T11:03:15.534Z,16.90
2017-09-01T11:05:43.694Z,16.90
2017-09-01T11:08:13.245Z,17.00
2017-09-01T11:10:42.264Z,17.10
2017-09-01T11:13:11.378Z,17.20
2017-09-01T11:15:39.472Z,17.30
2017-09-01T11:18:07.580Z,17.40
2017-09-01T11:20:41.423Z,17.60
2017-09-01T11:23:15.241Z,17.50
2017-09-01T11:25:44.130Z,17.60
2017-09-01T11:28:13.088Z,17.50
2017-09-01T11:30:41.249Z,17.60
2017-09-01T11:33:09.367Z,17.70
2017-09-01T11:35:38.408Z,17.90
2017-09-01T11:38:06.495Z,17.80
2017-09-01T11:40:37.723Z,17.80
2017-09-01T11:43:05.862Z,17.90
2017-09-01T11:45:33.948Z,17.80
2017-09-01T11:48:02.248Z,17.80
2017-09-01T11:50:30.352Z,17.80
2017-09-01T11:52:58.607Z,17.80
2017-09-01T11:55:27.513Z,17.70
2017-09-01T11:57:55.612Z,17.70
2017-09-01T12:00:23.680Z,17.70
2017-09-01T12:02:51.796Z,17.60
2017-09-01T12:05:19.910Z,17.60
2017-09-01T12:07:48.132Z,17.60
2017-09-01T12:10:17.176Z,17.70
2017-09-01T12:12:47.296Z,17.70
2017-09-01T12:15:15.495Z,17.70
2017-09-01T12:17:43.597Z,17.70
2017-09-01T12:20:12.555Z,17.60
2017-09-01T12:22:40.678Z,17.70
2017-09-01T12:25:08.759Z,17.70
2017-09-01T12:27:37.769Z,17.60
2017-09-01T12:30:06.875Z,17.70
2017-09-01T12:38:50.251Z,18.00
2017-09-01T12:41:18.356Z,18.10
2017-09-01T12:43:47.373Z,18.00
2017-09-01T12:46:19.467Z,17.80
2017-09-01T12:48:51.208Z,17.80
2017-09-01T12:51:20.307Z,17.70
2017-09-01T12:53:48.407Z,17.80
2017-09-01T12:59:06.219Z,18.20
2017-09-01T13:01:36.275Z,18.90
2017-09-01T13:04:05.184Z,19.10
2017-09-01T13:06:33.403Z,18.50
2017-09-01T13:09:01.522Z,19.00
2017-09-01T13:11:30.566Z,19.40
2017-09-01T13:14:01.496Z,19.60
2017-09-01T13:16:30.200Z,19.70
2017-09-01T13:18:59.193Z,19.70
2017-09-01T13:21:29.805Z,19.30
2017-09-01T13:23:59.631Z,19.30
2017-09-01T13:26:28.652Z,19.30
2017-09-01T13:28:57.809Z,19.00
2017-09-01T13:31:27.573Z,18.80
2017-09-01T13:33:56.778Z,18.60
2017-09-01T13:36:24.887Z,18.70
2017-09-01T13:38:53.155Z,18.90
2017-09-01T13:41:21.252Z,19.00
2017-09-01T13:43:49.433Z,19.10
2017-09-01T13:46:18.505Z,19.20
2017-09-01T13:48:48.189Z,19.00
2017-09-01T13:51:16.336Z,18.80
2017-09-01T13:53:44.430Z,19.00
2017-09-01T13:56:12.538Z,19.00
2017-09-01T13:58:42.568Z,18.90
2017-09-01T14:01:10.700Z,18.70
2017-09-01T14:03:39.188Z,18.40
2017-09-01T14:06:07.324Z,18.40
2017-09-01T14:08:36.477Z,18.40
2017-09-01T14:11:07.435Z,18.40
2017-09-01T14:13:35.644Z,18.30
2017-09-01T14:16:04.556Z,18.40
2017-09-01T14:18:33.489Z,18.40
2017-09-01T14:21:02.307Z,18.40
2017-09-01T14:23:30.480Z,18.40
2017-09-01T14:25:58.586Z,18.50
2017-09-01T14:28:26.684Z,18.40
2017-09-01T14:30:54.817Z,18.30
2017-09-01T14:33:23.645Z,18.30
2017-09-01T14:35:51.837Z,18.10
2017-09-01T14:38:19.941Z,18.10
2017-09-01T14:40:48.083Z,18.00
2017-09-01T14:43:16.279Z,18.00
2017-09-01T14:45:44.380Z,17.90
2017-09-01T14:48:12.583Z,17.90
2017-09-01T14:50:40.673Z,17.90
2017-09-01T14:53:08.863Z,17.90
2017-09-01T14:55:36.968Z,17.90
2017-09-01T14:58:05.100Z,18.00
2017-09-01T15:00:33.536Z,18.00
2017-09-01T15:03:01.637Z,18.10
2017-09-01T15:05:30.687Z,18.10
2017-09-01T15:07:59.603Z,18.20
2017-09-01T15:10:27.714Z,18.30
2017-09-01T15:12:55.822Z,18.40
2017-09-01T15:15:23.947Z,18.40
2017-09-01T15:17:52.046Z,18.30
2017-09-01T15:20:20.900Z,18.30
2017-09-01T15:22:49.949Z,18.30
2017-09-01T15:25:18.948Z,18.20
2017-09-01T15:27:48.005Z,18.20
2017-09-01T15:30:16.114Z,18.20
2017-09-01T15:32:44.992Z,18.20
2017-09-01T15:35:13.115Z,18.20
2017-09-01T15:37:41.620Z,18.30
2017-09-01T15:40:10.654Z,18.30
2017-09-01T15:42:38.746Z,18.40
2017-09-01T15:45:06.838Z,18.40
2017-09-01T15:47:36.093Z,18.40
2017-09-01T15:50:05.326Z,18.50
2017-09-01T15:52:33.485Z,18.40
2017-09-01T15:55:01.704Z,18.40
2017-09-01T15:57:29.805Z,18.40
2017-09-01T15:59:57.915Z,18.40
2017-09-01T16:02:26.860Z,18.40
2017-09-01T16:04:56.011Z,18.50
2017-09-01T16:07:25.832Z,18.40
2017-09-01T16:09:54.776Z,18.50
2017-09-01T16:12:22.873Z,18.50
2017-09-01T16:14:52.248Z,18.50
2017-09-01T16:17:20.373Z,18.40
2017-09-01T16:19:49.403Z,18.40
2017-09-01T16:22:19.315Z,18.40
2017-09-01T16:24:49.445Z,18.30
2017-09-01T16:27:18.359Z,18.40
2017-09-01T16:29:46.488Z,18.40
2017-09-01T16:32:15.340Z,18.50
2017-09-01T16:34:43.459Z,18.50
2017-09-01T16:37:11.622Z,18.50
2017-09-01T16:39:39.717Z,18.50
2017-09-01T16:42:07.801Z,18.40
2017-09-01T16:44:36.687Z,18.20
2017-09-01T16:47:04.820Z,18.10
2017-09-01T16:49:32.924Z,18.10
2017-09-01T16:52:01.012Z,18.00
2017-09-01T16:54:29.112Z,17.90
2017-09-01T16:56:57.188Z,17.80
2017-09-01T16:59:25.528Z,17.80
2017-09-01T17:01:55.584Z,17.80
2017-09-01T17:04:23.707Z,17.70
2017-09-01T17:06:51.875Z,17.70
2017-09-01T17:09:21.275Z,17.60
2017-09-01T17:11:49.481Z,17.60
2017-09-01T17:14:17.565Z,17.60
2017-09-01T17:16:46.612Z,17.60
2017-09-01T17:19:14.732Z,17.60
2017-09-01T17:21:43.722Z,17.60
2017-09-01T17:24:11.843Z,17.60
2017-09-01T17:26:39.929Z,17.50
2017-09-01T17:29:08.040Z,17.40
2017-09-01T17:31:40.740Z,17.50
2017-09-01T17:34:09.731Z,17.40
2017-09-01T17:36:37.815Z,17.30
2017-09-01T17:39:05.957Z,17.40
2017-09-01T17:41:34.118Z,17.40
2017-09-01T17:44:02.248Z,17.30
2017-09-01T17:46:31.211Z,17.30
2017-09-01T17:49:00.188Z,17.20
2017-09-01T17:51:28.402Z,17.00
2017-09-01T17:53:57.123Z,16.90
2017-09-01T17:56:26.063Z,16.90
2017-09-01T17:58:55.131Z,16.80
2017-09-01T18:01:23.415Z,16.80
2017-09-01T18:03:51.512Z,16.80
2017-09-01T18:06:20.535Z,16.80
2017-09-01T18:08:48.679Z,16.70
2017-09-01T18:11:16.778Z,16.70
2017-09-01T18:13:44.954Z,16.80
2017-09-01T18:16:13.863Z,16.90
2017-09-01T18:18:42.927Z,16.90
2017-09-01T18:21:11.036Z,16.80
2017-09-01T18:23:39.123Z,16.50
2017-09-01T18:26:07.381Z,16.20
2017-09-01T18:28:36.417Z,15.60
2017-09-01T18:31:05.221Z,15.70
2017-09-01T18:33:34.358Z,15.60
2017-09-01T18:36:02.508Z,15.50
2017-09-01T18:41:12.614Z,15.60
2017-09-01T18:43:57.983Z,15.50
2017-09-01T18:46:32.364Z,15.60
2017-09-01T18:49:01.619Z,15.80
2017-09-01T18:51:31.837Z,15.90
2017-09-01T18:54:00.059Z,15.80
2017-09-01T18:59:12.536Z,15.30
2017-09-01T19:01:45.260Z,15.30
2017-09-01T19:04:16.248Z,15.20
2017-09-01T19:06:57.334Z,15.20
2017-09-01T19:09:26.218Z,15.20
2017-09-01T19:11:55.262Z,15.20
2017-09-01T19:14:24.920Z,15.30
2017-09-01T19:16:56.388Z,15.20
2017-09-01T19:19:24.699Z,15.10
2017-09-01T19:25:09.931Z,15.00
2017-09-01T19:36:42.497Z,15.10
2017-09-01T19:39:16.572Z,15.10
2017-09-01T19:41:49.336Z,15.10
2017-09-01T19:44:18.906Z,15.00
2017-09-01T19:46:55.565Z,14.80
2017-09-01T19:49:25.872Z,14.60
2017-09-01T19:52:03.026Z,14.70
2017-09-01T19:55:01.273Z,15.00
2017-09-01T19:57:44.829Z,14.90
2017-09-01T20:00:32.741Z,15.00
2017-09-01T20:03:14.054Z,15.00
2017-09-01T20:05:49.451Z,14.90
2017-09-01T20:08:21.852Z,14.90
2017-09-01T20:11:02.784Z,15.00
2017-09-01T20:13:40.133Z,15.10
2017-09-01T20:16:14.400Z,15.20
2017-09-01T20:18:42.544Z,15.00
2017-09-01T20:21:10.686Z,15.10
2017-09-01T20:23:42.662Z,15.00
2017-09-01T20:26:11.645Z,14.80
2017-09-01T20:28:40.780Z,14.70
2017-09-01T20:31:08.891Z,14.80
2017-09-01T20:33:37.041Z,15.00
2017-09-01T20:36:05.160Z,15.10
2017-09-01T20:38:33.648Z,15.20
2017-09-01T20:41:02.156Z,15.20
2017-09-01T20:43:33.310Z,15.20
2017-09-01T20:46:01.682Z,15.20
2017-09-01T20:48:29.770Z,15.10
2017-09-01T20:50:59.716Z,14.90
2017-09-01T20:53:31.512Z,14.80
2017-09-01T20:55:59.692Z,14.60
2017-09-01T20:58:28.157Z,14.50
2017-09-01T21:00:56.257Z,14.70
2017-09-01T21:03:24.401Z,14.70
2017-09-01T21:05:52.596Z,14.60
2017-09-01T21:08:20.737Z,14.60
2017-09-01T21:10:48.938Z,14.70
2017-09-01T21:13:17.107Z,14.60
2017-09-01T21:15:45.345Z,14.60
2017-09-01T21:18:14.270Z,14.70
2017-09-01T21:20:42.378Z,14.70
2017-09-01T21:23:11.658Z,14.50
2017-09-01T21:25:39.793Z,14.60
2017-09-01T21:28:08.799Z,14.60
2017-09-01T21:30:37.108Z,14.60
2017-09-01T21:33:06.036Z,14.70
2017-09-01T21:35:34.472Z,14.70
2017-09-01T21:38:05.547Z,14.70
2017-09-01T21:40:33.684Z,14.60
2017-09-01T21:43:03.587Z,14.50
2017-09-01T21:45:31.684Z,14.60
2017-09-01T21:47:59.807Z,14.40
2017-09-01T21:50:28.199Z,14.40
2017-09-01T21:52:57.249Z,14.40
2017-09-01T21:55:25.366Z,14.50
2017-09-01T21:57:53.506Z,14.50
2017-09-01T22:00:21.624Z,14.60
2017-09-01T22:02:49.763Z,14.60
2017-09-01T22:05:17.896Z,14.60
2017-09-01T22:07:46.011Z,14.40
2017-09-01T22:10:14.195Z,14.40
2017-09-01T22:12:42.781Z,14.40
2017-09-01T22:15:11.187Z,14.30
2017-09-01T22:17:39.375Z,14.30
2017-09-01T22:20:07.679Z,14.30
2017-09-01T22:22:35.810Z,14.10
2017-09-01T22:25:04.234Z,14.20
2017-09-01T22:27:32.364Z,14.30
2017-09-01T22:30:01.195Z,14.30
2017-09-01T22:32:29.545Z,14.30
2017-09-01T22:34:58.499Z,14.20
2017-09-01T22:37:26.674Z,14.20
2017-09-01T22:39:54.767Z,14.10
2017-09-01T22:42:22.900Z,14.00
2017-09-01T22:44:51.098Z,14.00
2017-09-01T22:47:19.224Z,14.00
2017-09-01T22:49:48.276Z,14.00
2017-09-01T22:52:16.396Z,14.10
2017-09-01T22:54:44.512Z,14.00
2017-09-01T22:57:13.349Z,13.90
2017-09-01T22:59:42.088Z,13.90
2017-09-01T23:02:10.253Z,13.90
2017-09-01T23:04:41.687Z,13.90
2017-09-01T23:07:10.768Z,13.90
2017-09-01T23:09:38.872Z,13.80
2017-09-01T23:12:06.997Z,13.90
2017-09-01T23:14:35.103Z,13.90
2017-09-01T23:17:03.420Z,13.90
2017-09-01T23:19:31.567Z,13.80
2017-09-01T23:21:59.697Z,13.80
2017-09-01T23:24:28.225Z,13.70
2017-09-01T23:27:02.422Z,13.70
2017-09-01T23:29:30.768Z,13.70
2017-09-01T23:31:59.148Z,13.60
2017-09-01T23:34:27.292Z,13.60
2017-09-01T23:36:55.456Z,13.60
2017-09-01T23:39:23.834Z,13.60
2017-09-01T23:41:52.778Z,13.50
2017-09-01T23:44:21.665Z,13.40
2017-09-01T23:46:51.716Z,13.40
2017-09-01T23:49:20.176Z,13.50
2017-09-01T23:51:48.676Z,13.40
2017-09-01T23:54:16.815Z,13.50
2017-09-01T23:56:44.957Z,13.40
2017-09-01T23:59:13.328Z,13.30
